Atlantic Clover — 3FVD6 — position and weather

sailwx.info

Track history (hours):
 
Tides and Currents Weather Stations Pressure Air Temp Water Temp Dewpoint Dewpoint Depression Visibility Wind Speed Wind Dir Waves Ship Positions

Atlantic Clover

Last reported at 2017-Aug-13 12:00 UTC. Time now 2017-Aug-19 07:24 UTC.
Position N 30°57' E 122°54'.

Length 180 m; draft 6.5 m.

Type: Cargo ship. MMSI: 371263000.

Date/timePositionNaut miles runAvg speedWind from/ knotsBaromVisibWave heightAir tempDewpointWater temp
2017-Aug-13 12:00N 30°57' E 122°54'3113.4
2017-Aug-13 09:41N 31°02' E 122°18'315.2
2017-Aug-13 09:30N 31°02' E 122°15'712.5
2017-Aug-13 08:59N 31°03' E 122°07'612.9
2017-Aug-13 08:30N 31°05' E 122°00'510.5
2017-Aug-13 08:00N 31°08' E 121°55'5 9.1
2017-Aug-13 07:30N 31°10' E 121°51'5 9.4
2017-Aug-13 07:00N 31°14' E 121°47'510.2
2017-Aug-13 06:30N 31°18' E 121°43'5 9.4
2017-Aug-13 06:00N 31°21' E 121°39'4 8.3
2017-Aug-13 05:30N 31°23' E 121°35'510.7
2017-Aug-13 05:00N 31°26' E 121°30'3 7.0
2017-Aug-13 04:30N 31°28' E 121°27'510.2
2017-Aug-13 04:00N 31°31' E 121°22'510.5
2017-Aug-13 03:30N 31°35' E 121°18'5 9.8
2017-Aug-13 03:00N 31°39' E 121°14'611.8
2017-Aug-13 02:30N 31°42' E 121°08'712.7
2017-Aug-13 01:56N 31°46' E 121°01'  
2017-Aug-09 23:57N 31°48' E 120°56'6 5.9
2017-Aug-09 22:57N 31°46' E 121°02'4 9.9
2017-Aug-09 22:30N 31°44' E 121°07'510.4
2017-Aug-09 22:00N 31°41' E 121°11'510.9
2017-Aug-09 21:30N 31°37' E 121°16'611.5
2017-Aug-09 21:00N 31°33' E 121°20'611.9
2017-Aug-09 20:30N 31°29' E 121°26'5 9.9
2017-Aug-09 20:00N 31°26' E 121°30'3 6.7
2017-Aug-09 19:30N 31°24' E 121°33'4 7.3
2017-Aug-09 19:00N 31°22' E 121°37'5 9.4
2017-Aug-09 18:30N 31°20' E 121°42'5 9.6
2017-Aug-09 18:00N 31°18' E 121°47'510.1
2017-Aug-09 17:31N 31°16' E 121°53'611.9
2017-Aug-09 17:00N 31°15' E 121°59'5 9.9
2017-Aug-09 16:30N 31°14' E 122°05'612.6
2017-Aug-09 16:00N 31°10' E 122°11'611.7
2017-Aug-09 15:30N 31°07' E 122°17'611.3
2017-Aug-09 15:00N 31°07' E 122°23'4 8.0
2017-Aug-09 14:30N 31°07' E 122°28'76 8.4
2017-Aug-09 05:25N 29°58' E 123°06'613.1
2017-Aug-09 04:59N 29°53' E 123°04'713.0
2017-Aug-09 04:29N 29°47' E 123°03'42213.4
2017-Aug-07 21:05N 23°55' E 118°41'  
Track history (hours):
 
Tides and Currents Weather Stations Pressure Air Temp Water Temp Dewpoint Dewpoint Depression Visibility Wind Speed Wind Dir Waves Ship Positions

Atlantic Clover

Last reported at 2017-Aug-13 12:00 UTC. Time now 2017-Aug-19 07:24 UTC.
Position N 30°57' E 122°54'.

Length 180 m; draft 6.5 m.

Type: Cargo ship. MMSI: 371263000.

Date/timePositionNaut miles runAvg speedWind from/ knotsBaromVisibWave heightAir tempDewpointWater temp
2017-Aug-13 12:00N 30°57' E 122°54'3113.4
2017-Aug-13 09:41N 31°02' E 122°18'315.2
2017-Aug-13 09:30N 31°02' E 122°15'712.5
2017-Aug-13 08:59N 31°03' E 122°07'612.9
2017-Aug-13 08:30N 31°05' E 122°00'510.5
2017-Aug-13 08:00N 31°08' E 121°55'5 9.1
2017-Aug-13 07:30N 31°10' E 121°51'5 9.4
2017-Aug-13 07:00N 31°14' E 121°47'510.2
2017-Aug-13 06:30N 31°18' E 121°43'5 9.4
2017-Aug-13 06:00N 31°21' E 121°39'4 8.3
2017-Aug-13 05:30N 31°23' E 121°35'510.7
2017-Aug-13 05:00N 31°26' E 121°30'3 7.0
2017-Aug-13 04:30N 31°28' E 121°27'510.2
2017-Aug-13 04:00N 31°31' E 121°22'510.5
2017-Aug-13 03:30N 31°35' E 121°18'5 9.8
2017-Aug-13 03:00N 31°39' E 121°14'611.8
2017-Aug-13 02:30N 31°42' E 121°08'712.7
2017-Aug-13 01:56N 31°46' E 121°01'  
2017-Aug-09 23:57N 31°48' E 120°56'6 5.9
2017-Aug-09 22:57N 31°46' E 121°02'4 9.9
2017-Aug-09 22:30N 31°44' E 121°07'510.4
2017-Aug-09 22:00N 31°41' E 121°11'510.9
2017-Aug-09 21:30N 31°37' E 121°16'611.5
2017-Aug-09 21:00N 31°33' E 121°20'611.9
2017-Aug-09 20:30N 31°29' E 121°26'5 9.9
2017-Aug-09 20:00N 31°26' E 121°30'3 6.7
2017-Aug-09 19:30N 31°24' E 121°33'4 7.3
2017-Aug-09 19:00N 31°22' E 121°37'5 9.4
2017-Aug-09 18:30N 31°20' E 121°42'5 9.6
2017-Aug-09 18:00N 31°18' E 121°47'510.1
2017-Aug-09 17:31N 31°16' E 121°53'611.9
2017-Aug-09 17:00N 31°15' E 121°59'5 9.9
2017-Aug-09 16:30N 31°14' E 122°05'612.6
2017-Aug-09 16:00N 31°10' E 122°11'611.7
2017-Aug-09 15:30N 31°07' E 122°17'611.3
2017-Aug-09 15:00N 31°07' E 122°23'4 8.0
2017-Aug-09 14:30N 31°07' E 122°28'76 8.4
2017-Aug-09 05:25N 29°58' E 123°06'613.1
2017-Aug-09 04:59N 29°53' E 123°04'713.0
2017-Aug-09 04:29N 29°47' E 123°03'42213.4
2017-Aug-07 21:05N 23°55' E 118°41'  

Dump ship's entire track history